sensor_id;sensor_type;location;lat;lon;timestamp;P1;P2;P0
68116;PMS7003;54909;54.464;18.498;2024-01-30T00:02:22;58;46;31
68116;PMS7003;54909;54.464;18.498;2024-01-30T00:05:23;60;49;31
68116;PMS7003;54909;54.464;18.498;2024-01-30T00:08:24;52;44;30
68116;PMS7003;54909;54.464;18.498;2024-01-30T00:11:30;60;47;31
68116;PMS7003;54909;54.464;18.498;2024-01-30T00:14:32;64;51;31
68116;PMS7003;54909;54.464;18.498;2024-01-30T00:17:33;62;50;32
68116;PMS7003;54909;54.464;18.498;2024-01-30T00:20:43;56;44;30
68116;PMS7003;54909;54.464;18.498;2024-01-30T00:23:44;63;49;30
68116;PMS7003;54909;54.464;18.498;2024-01-30T00:26:45;60;47;29
68116;PMS7003;54909;54.464;18.498;2024-01-30T00:29:47;61;48;31
68116;PMS7003;54909;54.464;18.498;2024-01-30T00:32:48;63;50;31
68116;PMS7003;54909;54.464;18.498;2024-01-30T00:35:49;58;47;31
68116;PMS7003;54909;54.464;18.498;2024-01-30T00:38:50;60;48;31
68116;PMS7003;54909;54.464;18.498;2024-01-30T00:41:52;63;49;31
68116;PMS7003;54909;54.464;18.498;2024-01-30T00:44:58;61;48;30
68116;PMS7003;54909;54.464;18.498;2024-01-30T00:47:59;57;46;30
68116;PMS7003;54909;54.464;18.498;2024-01-30T00:51:00;61;49;31
68116;PMS7003;54909;54.464;18.498;2024-01-30T00:54:02;62;47;30
68116;PMS7003;54909;54.464;18.498;2024-01-30T00:57:03;61;49;31
68116;PMS7003;54909;54.464;18.498;2024-01-30T01:00:05;61;46;30
68116;PMS7003;54909;54.464;18.498;2024-01-30T01:03:09;63;51;30
68116;PMS7003;54909;54.464;18.498;2024-01-30T01:06:11;64;51;31
68116;PMS7003;54909;54.464;18.498;2024-01-30T01:09:13;60;48;31
68116;PMS7003;54909;54.464;18.498;2024-01-30T01:12:14;63;49;32
68116;PMS7003;54909;54.464;18.498;2024-01-30T01:15:16;59;48;29
68116;PMS7003;54909;54.464;18.498;2024-01-30T01:18:26;63;51;32
68116;PMS7003;54909;54.464;18.498;2024-01-30T01:21:27;66;52;31
68116;PMS7003;54909;54.464;18.498;2024-01-30T01:24:32;60;49;30
68116;PMS7003;54909;54.464;18.498;2024-01-30T01:27:39;63;51;31
68116;PMS7003;54909;54.464;18.498;2024-01-30T01:30:43;63;49;32
68116;PMS7003;54909;54.464;18.498;2024-01-30T01:33:44;63;50;30
68116;PMS7003;54909;54.464;18.498;2024-01-30T01:36:52;63;51;32
68116;PMS7003;54909;54.464;18.498;2024-01-30T01:39:55;65;51;33
68116;PMS7003;54909;54.464;18.498;2024-01-30T01:42:57;71;50;32
68116;PMS7003;54909;54.464;18.498;2024-01-30T01:46:05;67;53;33
68116;PMS7003;54909;54.464;18.498;2024-01-30T01:49:07;69;53;33
68116;PMS7003;54909;54.464;18.498;2024-01-30T01:52:09;66;52;34
68116;PMS7003;54909;54.464;18.498;2024-01-30T01:55:16;71;53;32
68116;PMS7003;54909;54.464;18.498;2024-01-30T01:58:24;69;53;33
68116;PMS7003;54909;54.464;18.498;2024-01-30T02:01:32;67;53;33
68116;PMS7003;54909;54.464;18.498;2024-01-30T02:04:34;70;55;33
68116;PMS7003;54909;54.464;18.498;2024-01-30T02:07:35;69;55;33
68116;PMS7003;54909;54.464;18.498;2024-01-30T02:10:36;69;52;33
68116;PMS7003;54909;54.464;18.498;2024-01-30T02:13:42;67;53;34
68116;PMS7003;54909;54.464;18.498;2024-01-30T02:16:43;68;54;34
68116;PMS7003;54909;54.464;18.498;2024-01-30T02:19:44;70;53;34
68116;PMS7003;54909;54.464;18.498;2024-01-30T02:22:46;71;53;32
68116;PMS7003;54909;54.464;18.498;2024-01-30T02:25:49;68;53;33
68116;PMS7003;54909;54.464;18.498;2024-01-30T02:28:53;67;53;35
68116;PMS7003;54909;54.464;18.498;2024-01-30T02:31:54;66;53;32
68116;PMS7003;54909;54.464;18.498;2024-01-30T02:34:55;70;52;32
68116;PMS7003;54909;54.464;18.498;2024-01-30T02:37:58;68;51;31
68116;PMS7003;54909;54.464;18.498;2024-01-30T02:40:59;65;50;32
68116;PMS7003;54909;54.464;18.498;2024-01-30T02:44:00;75;56;34
68116;PMS7003;54909;54.464;18.498;2024-01-30T02:47:10;64;51;34
68116;PMS7003;54909;54.464;18.498;2024-01-30T02:50:11;71;55;34
68116;PMS7003;54909;54.464;18.498;2024-01-30T02:53:13;70;54;34
68116;PMS7003;54909;54.464;18.498;2024-01-30T02:56:23;69;54;35
68116;PMS7003;54909;54.464;18.498;2024-01-30T02:59:24;71;53;33
68116;PMS7003;54909;54.464;18.498;2024-01-30T03:02:26;68;51;32
68116;PMS7003;54909;54.464;18.498;2024-01-30T03:05:27;68;52;34
68116;PMS7003;54909;54.464;18.498;2024-01-30T03:08:28;70;55;35
68116;PMS7003;54909;54.464;18.498;2024-01-30T03:11:30;72;55;34
68116;PMS7003;54909;54.464;18.498;2024-01-30T03:14:31;67;52;33
68116;PMS7003;54909;54.464;18.498;2024-01-30T03:17:33;71;54;33
68116;PMS7003;54909;54.464;18.498;2024-01-30T03:20:38;69;53;32
68116;PMS7003;54909;54.464;18.498;2024-01-30T03:23:39;69;54;32
68116;PMS7003;54909;54.464;18.498;2024-01-30T03:26:41;71;55;32
68116;PMS7003;54909;54.464;18.498;2024-01-30T03:29:50;72;54;34
68116;PMS7003;54909;54.464;18.498;2024-01-30T03:32:52;75;57;34
68116;PMS7003;54909;54.464;18.498;2024-01-30T03:35:53;69;54;34
68116;PMS7003;54909;54.464;18.498;2024-01-30T03:39:03;73;56;35
68116;PMS7003;54909;54.464;18.498;2024-01-30T03:42:04;71;55;34
68116;PMS7003;54909;54.464;18.498;2024-01-30T03:45:06;68;53;34
68116;PMS7003;54909;54.464;18.498;2024-01-30T03:48:16;69;52;34
68116;PMS7003;54909;54.464;18.498;2024-01-30T03:51:17;68;55;34
68116;PMS7003;54909;54.464;18.498;2024-01-30T03:54:18;69;53;33
68116;PMS7003;54909;54.464;18.498;2024-01-30T03:57:19;70;55;34
68116;PMS7003;54909;54.464;18.498;2024-01-30T04:00:22;68;53;34
68116;PMS7003;54909;54.464;18.498;2024-01-30T04:03:23;66;53;32
68116;PMS7003;54909;54.464;18.498;2024-01-30T04:06:26;70;54;34
68116;PMS7003;54909;54.464;18.498;2024-01-30T04:09:27;67;53;33
68116;PMS7003;54909;54.464;18.498;2024-01-30T04:12:29;69;52;33
68116;PMS7003;54909;54.464;18.498;2024-01-30T04:15:30;70;54;33
68116;PMS7003;54909;54.464;18.498;2024-01-30T04:18:33;67;52;34
68116;PMS7003;54909;54.464;18.498;2024-01-30T04:21:42;71;56;34
68116;PMS7003;54909;54.464;18.498;2024-01-30T04:24:43;71;55;34
68116;PMS7003;54909;54.464;18.498;2024-01-30T04:27:45;70;53;34
68116;PMS7003;54909;54.464;18.498;2024-01-30T04:30:46;69;54;33
68116;PMS7003;54909;54.464;18.498;2024-01-30T04:33:47;68;53;32
68116;PMS7003;54909;54.464;18.498;2024-01-30T04:36:48;67;54;33
68116;PMS7003;54909;54.464;18.498;2024-01-30T04:39:50;70;53;33
68116;PMS7003;54909;54.464;18.498;2024-01-30T04:42:51;81;61;38
68116;PMS7003;54909;54.464;18.498;2024-01-30T04:45:55;80;61;40
68116;PMS7003;54909;54.464;18.498;2024-01-30T04:48:57;82;62;38
68116;PMS7003;54909;54.464;18.498;2024-01-30T04:51:58;76;56;35
68116;PMS7003;54909;54.464;18.498;2024-01-30T04:55:08;75;56;35
68116;PMS7003;54909;54.464;18.498;2024-01-30T04:58:09;72;56;35
68116;PMS7003;54909;54.464;18.498;2024-01-30T05:01:14;73;54;33
68116;PMS7003;54909;54.464;18.498;2024-01-30T05:04:19;73;53;33
68116;PMS7003;54909;54.464;18.498;2024-01-30T05:07:20;69;55;33
68116;PMS7003;54909;54.464;18.498;2024-01-30T05:10:22;71;55;34
68116;PMS7003;54909;54.464;18.498;2024-01-30T05:13:31;68;54;34
68116;PMS7003;54909;54.464;18.498;2024-01-30T05:16:32;69;55;34
68116;PMS7003;54909;54.464;18.498;2024-01-30T05:19:34;74;53;33
68116;PMS7003;54909;54.464;18.498;2024-01-30T05:22:43;67;53;34
68116;PMS7003;54909;54.464;18.498;2024-01-30T05:25:45;68;54;34
68116;PMS7003;54909;54.464;18.498;2024-01-30T05:28:47;68;54;34
68116;PMS7003;54909;54.464;18.498;2024-01-30T05:31:54;82;60;36
68116;PMS7003;54909;54.464;18.498;2024-01-30T05:34:55;82;62;39
68116;PMS7003;54909;54.464;18.498;2024-01-30T05:37:56;77;60;36
68116;PMS7003;54909;54.464;18.498;2024-01-30T05:41:06;75;58;36
68116;PMS7003;54909;54.464;18.498;2024-01-30T05:44:08;73;56;35
68116;PMS7003;54909;54.464;18.498;2024-01-30T05:47:09;74;57;35
68116;PMS7003;54909;54.464;18.498;2024-01-30T05:50:18;69;54;35
68116;PMS7003;54909;54.464;18.498;2024-01-30T05:53:25;69;54;34
68116;PMS7003;54909;54.464;18.498;2024-01-30T05:56:27;73;54;34
68116;PMS7003;54909;54.464;18.498;2024-01-30T05:59:31;68;54;34
68116;PMS7003;54909;54.464;18.498;2024-01-30T06:02:33;69;54;34
68116;PMS7003;54909;54.464;18.498;2024-01-30T06:05:34;69;53;34
68116;PMS7003;54909;54.464;18.498;2024-01-30T06:08:44;70;56;34
68116;PMS7003;54909;54.464;18.498;2024-01-30T06:11:45;73;54;35
68116;PMS7003;54909;54.464;18.498;2024-01-30T06:14:47;70;53;34
68116;PMS7003;54909;54.464;18.498;2024-01-30T06:17:56;69;52;34
68116;PMS7003;54909;54.464;18.498;2024-01-30T06:20:57;67;52;34
68116;PMS7003;54909;54.464;18.498;2024-01-30T06:23:58;72;54;33
68116;PMS7003;54909;54.464;18.498;2024-01-30T06:27:08;67;53;33
68116;PMS7003;54909;54.464;18.498;2024-01-30T06:30:10;70;56;34
68116;PMS7003;54909;54.464;18.498;2024-01-30T06:33:12;69;52;33
68116;PMS7003;54909;54.464;18.498;2024-01-30T06:36:18;67;51;33
68116;PMS7003;54909;54.464;18.498;2024-01-30T06:39:19;73;55;35
68116;PMS7003;54909;54.464;18.498;2024-01-30T06:42:21;71;56;35
68116;PMS7003;54909;54.464;18.498;2024-01-30T06:45:29;68;53;34
68116;PMS7003;54909;54.464;18.498;2024-01-30T06:48:31;72;55;34
68116;PMS7003;54909;54.464;18.498;2024-01-30T06:51:32;73;58;34
68116;PMS7003;54909;54.464;18.498;2024-01-30T06:54:41;73;56;35
68116;PMS7003;54909;54.464;18.498;2024-01-30T06:57:42;69;55;34
68116;PMS7003;54909;54.464;18.498;2024-01-30T07:00:44;74;57;35
68116;PMS7003;54909;54.464;18.498;2024-01-30T07:03:53;75;55;36
68116;PMS7003;54909;54.464;18.498;2024-01-30T07:06:55;73;56;35
68116;PMS7003;54909;54.464;18.498;2024-01-30T07:09:58;78;59;35
68116;PMS7003;54909;54.464;18.498;2024-01-30T07:13:05;68;53;34
68116;PMS7003;54909;54.464;18.498;2024-01-30T07:16:10;72;56;35
68116;PMS7003;54909;54.464;18.498;2024-01-30T07:19:14;72;55;35
68116;PMS7003;54909;54.464;18.498;2024-01-30T07:22:18;75;56;35
68116;PMS7003;54909;54.464;18.498;2024-01-30T07:25:20;72;57;36
68116;PMS7003;54909;54.464;18.498;2024-01-30T07:28:29;77;59;35
68116;PMS7003;54909;54.464;18.498;2024-01-30T07:31:31;76;58;36
68116;PMS7003;54909;54.464;18.498;2024-01-30T07:34:32;78;59;36
68116;PMS7003;54909;54.464;18.498;2024-01-30T07:37:33;72;57;35
68116;PMS7003;54909;54.464;18.498;2024-01-30T07:40:42;74;57;35
68116;PMS7003;54909;54.464;18.498;2024-01-30T07:43:43;73;57;34
68116;PMS7003;54909;54.464;18.498;2024-01-30T07:46:44;69;55;34
68116;PMS7003;54909;54.464;18.498;2024-01-30T07:49:53;70;54;35
68116;PMS7003;54909;54.464;18.498;2024-01-30T07:52:58;79;59;36
68116;PMS7003;54909;54.464;18.498;2024-01-30T07:56:01;82;66;38
68116;PMS7003;54909;54.464;18.498;2024-01-30T07:59:05;73;58;36
68116;PMS7003;54909;54.464;18.498;2024-01-30T08:02:06;71;54;35
68116;PMS7003;54909;54.464;18.498;2024-01-30T08:05:08;67;52;35
68116;PMS7003;54909;54.464;18.498;2024-01-30T08:08:18;76;56;35
68116;PMS7003;54909;54.464;18.498;2024-01-30T08:11:20;74;56;36
68116;PMS7003;54909;54.464;18.498;2024-01-30T08:14:27;74;55;35
68116;PMS7003;54909;54.464;18.498;2024-01-30T08:17:30;69;56;35
68116;PMS7003;54909;54.464;18.498;2024-01-30T08:20:31;76;59;37
68116;PMS7003;54909;54.464;18.498;2024-01-30T08:23:33;70;57;36
68116;PMS7003;54909;54.464;18.498;2024-01-30T08:26:34;75;56;36
68116;PMS7003;54909;54.464;18.498;2024-01-30T08:29:35;71;55;35
68116;PMS7003;54909;54.464;18.498;2024-01-30T08:32:36;72;58;37
68116;PMS7003;54909;54.464;18.498;2024-01-30T08:35:38;72;57;36
68116;PMS7003;54909;54.464;18.498;2024-01-30T08:38:39;73;57;35
68116;PMS7003;54909;54.464;18.498;2024-01-30T08:41:43;79;61;38
68116;PMS7003;54909;54.464;18.498;2024-01-30T08:44:44;76;61;39
68116;PMS7003;54909;54.464;18.498;2024-01-30T08:47:45;80;63;39
68116;PMS7003;54909;54.464;18.498;2024-01-30T08:50:54;76;58;36
68116;PMS7003;54909;54.464;18.498;2024-01-30T08:53:55;71;53;35
68116;PMS7003;54909;54.464;18.498;2024-01-30T08:56:57;69;54;34
68116;PMS7003;54909;54.464;18.498;2024-01-30T09:00:07;75;57;36
68116;PMS7003;54909;54.464;18.498;2024-01-30T09:03:10;73;55;35
68116;PMS7003;54909;54.464;18.498;2024-01-30T09:06:11;76;57;35
68116;PMS7003;54909;54.464;18.498;2024-01-30T09:09:20;70;53;35
68116;PMS7003;54909;54.464;18.498;2024-01-30T09:12:21;70;53;35
68116;PMS7003;54909;54.464;18.498;2024-01-30T09:15:22;68;52;35
68116;PMS7003;54909;54.464;18.498;2024-01-30T09:18:32;74;57;36
68116;PMS7003;54909;54.464;18.498;2024-01-30T09:21:33;71;56;36
68116;PMS7003;54909;54.464;18.498;2024-01-30T09:24:34;74;58;36
68116;PMS7003;54909;54.464;18.498;2024-01-30T09:27:35;74;57;36
68116;PMS7003;54909;54.464;18.498;2024-01-30T09:30:36;71;55;36
68116;PMS7003;54909;54.464;18.498;2024-01-30T09:33:38;70;54;36
68116;PMS7003;54909;54.464;18.498;2024-01-30T09:36:39;69;54;36
68116;PMS7003;54909;54.464;18.498;2024-01-30T09:39:41;69;55;34
68116;PMS7003;54909;54.464;18.498;2024-01-30T09:42:46;73;55;35
68116;PMS7003;54909;54.464;18.498;2024-01-30T09:45:50;71;56;35
68116;PMS7003;54909;54.464;18.498;2024-01-30T09:48:53;69;54;34
68116;PMS7003;54909;54.464;18.498;2024-01-30T09:52:04;68;52;35
68116;PMS7003;54909;54.464;18.498;2024-01-30T09:55:07;66;50;34
68116;PMS7003;54909;54.464;18.498;2024-01-30T09:58:09;70;55;34
68116;PMS7003;54909;54.464;18.498;2024-01-30T10:01:15;68;54;35
68116;PMS7003;54909;54.464;18.498;2024-01-30T10:04:19;66;49;33
68116;PMS7003;54909;54.464;18.498;2024-01-30T10:07:20;59;48;31
68116;PMS7003;54909;54.464;18.498;2024-01-30T10:10:25;60;48;31
68116;PMS7003;54909;54.464;18.498;2024-01-30T10:13:26;60;48;31
68116;PMS7003;54909;54.464;18.498;2024-01-30T10:16:27;66;50;32
68116;PMS7003;54909;54.464;18.498;2024-01-30T10:19:29;59;48;31
68116;PMS7003;54909;54.464;18.498;2024-01-30T10:22:30;61;49;30
68116;PMS7003;54909;54.464;18.498;2024-01-30T10:25:31;63;50;32
68116;PMS7003;54909;54.464;18.498;2024-01-30T10:28:33;63;50;32
68116;PMS7003;54909;54.464;18.498;2024-01-30T10:31:34;65;50;31
68116;PMS7003;54909;54.464;18.498;2024-01-30T10:34:40;65;50;32
68116;PMS7003;54909;54.464;18.498;2024-01-30T10:37:44;61;49;33
68116;PMS7003;54909;54.464;18.498;2024-01-30T10:40:49;59;48;30
68116;PMS7003;54909;54.464;18.498;2024-01-30T10:47:07;58;47;30
68116;PMS7003;54909;54.464;18.498;2024-01-30T10:50:14;60;48;29
68116;PMS7003;54909;54.464;18.498;2024-01-30T10:53:16;57;46;30
68116;PMS7003;54909;54.464;18.498;2024-01-30T10:56:22;52;43;29
68116;PMS7003;54909;54.464;18.498;2024-01-30T10:59:23;51;42;28
68116;PMS7003;54909;54.464;18.498;2024-01-30T11:02:28;53;42;28
68116;PMS7003;54909;54.464;18.498;2024-01-30T11:05:29;53;42;29
68116;PMS7003;54909;54.464;18.498;2024-01-30T11:08:34;53;42;28
68116;PMS7003;54909;54.464;18.498;2024-01-30T11:14:48;50;41;28
68116;PMS7003;54909;54.464;18.498;2024-01-30T11:17:52;52;41;29
68116;PMS7003;54909;54.464;18.498;2024-01-30T11:20:53;50;41;28
68116;PMS7003;54909;54.464;18.498;2024-01-30T11:23:57;52;43;28
68116;PMS7003;54909;54.464;18.498;2024-01-30T11:26:58;53;42;28
68116;PMS7003;54909;54.464;18.498;2024-01-30T11:30:01;53;42;29
68116;PMS7003;54909;54.464;18.498;2024-01-30T11:33:07;54;42;28
68116;PMS7003;54909;54.464;18.498;2024-01-30T11:36:12;52;42;28
68116;PMS7003;54909;54.464;18.498;2024-01-30T11:39:16;52;43;28
68116;PMS7003;54909;54.464;18.498;2024-01-30T11:42:22;52;43;28
68116;PMS7003;54909;54.464;18.498;2024-01-30T11:45:28;51;42;29
68116;PMS7003;54909;54.464;18.498;2024-01-30T11:48:30;52;42;28
68116;PMS7003;54909;54.464;18.498;2024-01-30T11:51:31;50;39;28
68116;PMS7003;54909;54.464;18.498;2024-01-30T11:54:32;49;40;28
68116;PMS7003;54909;54.464;18.498;2024-01-30T11:57:35;47;38;26
68116;PMS7003;54909;54.464;18.498;2024-01-30T12:00:37;51;41;27
68116;PMS7003;54909;54.464;18.498;2024-01-30T12:03:38;47;39;28
68116;PMS7003;54909;54.464;18.498;2024-01-30T12:06:50;45;37;26
68116;PMS7003;54909;54.464;18.498;2024-01-30T12:09:52;51;43;28
68116;PMS7003;54909;54.464;18.498;2024-01-30T12:12:55;56;46;30
68116;PMS7003;54909;54.464;18.498;2024-01-30T12:16:00;56;44;29
68116;PMS7003;54909;54.464;18.498;2024-01-30T12:19:02;55;44;29
68116;PMS7003;54909;54.464;18.498;2024-01-30T12:22:03;55;45;30
68116;PMS7003;54909;54.464;18.498;2024-01-30T12:25:12;63;49;32
68116;PMS7003;54909;54.464;18.498;2024-01-30T12:28:15;57;46;32
68116;PMS7003;54909;54.464;18.498;2024-01-30T12:31:17;60;49;32
68116;PMS7003;54909;54.464;18.498;2024-01-30T12:34:24;57;47;31
68116;PMS7003;54909;54.464;18.498;2024-01-30T12:37:26;60;47;31
68116;PMS7003;54909;54.464;18.498;2024-01-30T12:40:27;56;45;31
68116;PMS7003;54909;54.464;18.498;2024-01-30T12:43:29;58;45;30
68116;PMS7003;54909;54.464;18.498;2024-01-30T12:46:30;57;44;30
68116;PMS7003;54909;54.464;18.498;2024-01-30T12:49:31;56;46;30
68116;PMS7003;54909;54.464;18.498;2024-01-30T12:52:32;53;43;30
68116;PMS7003;54909;54.464;18.498;2024-01-30T12:55:34;59;47;31
68116;PMS7003;54909;54.464;18.498;2024-01-30T12:58:38;57;46;31
68116;PMS7003;54909;54.464;18.498;2024-01-30T13:01:39;60;48;32
68116;PMS7003;54909;54.464;18.498;2024-01-30T13:04:41;62;48;32
68116;PMS7003;54909;54.464;18.498;2024-01-30T13:07:50;60;48;32
68116;PMS7003;54909;54.464;18.498;2024-01-30T13:10:53;57;45;32
68116;PMS7003;54909;54.464;18.498;2024-01-30T13:13:54;56;46;31
68116;PMS7003;54909;54.464;18.498;2024-01-30T13:17:02;58;47;32
68116;PMS7003;54909;54.464;18.498;2024-01-30T13:20:04;61;48;33
68116;PMS7003;54909;54.464;18.498;2024-01-30T13:23:08;63;49;32
68116;PMS7003;54909;54.464;18.498;2024-01-30T13:26:16;59;47;32
68116;PMS7003;54909;54.464;18.498;2024-01-30T13:29:18;62;48;32
68116;PMS7003;54909;54.464;18.498;2024-01-30T13:32:19;58;47;32
68116;PMS7003;54909;54.464;18.498;2024-01-30T13:35:20;63;49;32
68116;PMS7003;54909;54.464;18.498;2024-01-30T13:38:21;64;50;33
68116;PMS7003;54909;54.464;18.498;2024-01-30T13:41:22;61;49;33
68116;PMS7003;54909;54.464;18.498;2024-01-30T13:44:24;61;50;33
68116;PMS7003;54909;54.464;18.498;2024-01-30T13:47:25;60;48;33
68116;PMS7003;54909;54.464;18.498;2024-01-30T13:50:28;64;50;34
68116;PMS7003;54909;54.464;18.498;2024-01-30T13:53:29;64;49;33
68116;PMS7003;54909;54.464;18.498;2024-01-30T13:56:31;61;50;33
68116;PMS7003;54909;54.464;18.498;2024-01-30T13:59:32;60;47;32
68116;PMS7003;54909;54.464;18.498;2024-01-30T14:02:33;58;47;32
68116;PMS7003;54909;54.464;18.498;2024-01-30T14:05:34;62;50;33
68116;PMS7003;54909;54.464;18.498;2024-01-30T14:08:36;68;53;34
68116;PMS7003;54909;54.464;18.498;2024-01-30T14:11:37;63;50;34
68116;PMS7003;54909;54.464;18.498;2024-01-30T14:14:41;67;51;35
68116;PMS7003;54909;54.464;18.498;2024-01-30T14:17:42;68;53;35
68116;PMS7003;54909;54.464;18.498;2024-01-30T14:20:44;68;53;34
68116;PMS7003;54909;54.464;18.498;2024-01-30T14:23:54;66;52;35
68116;PMS7003;54909;54.464;18.498;2024-01-30T14:26:55;67;51;35
68116;PMS7003;54909;54.464;18.498;2024-01-30T14:29:56;67;52;34
68116;PMS7003;54909;54.464;18.498;2024-01-30T14:33:06;65;51;34
68116;PMS7003;54909;54.464;18.498;2024-01-30T14:36:07;63;51;32
68116;PMS7003;54909;54.464;18.498;2024-01-30T14:39:10;64;51;33
68116;PMS7003;54909;54.464;18.498;2024-01-30T14:42:18;61;49;33
68116;PMS7003;54909;54.464;18.498;2024-01-30T14:45:19;69;54;34
68116;PMS7003;54909;54.464;18.498;2024-01-30T14:48:22;66;53;34
68116;PMS7003;54909;54.464;18.498;2024-01-30T14:51:32;65;52;34
68116;PMS7003;54909;54.464;18.498;2024-01-30T14:54:33;65;51;33
68116;PMS7003;54909;54.464;18.498;2024-01-30T14:57:34;65;51;32
68116;PMS7003;54909;54.464;18.498;2024-01-30T15:00:44;68;52;33
68116;PMS7003;54909;54.464;18.498;2024-01-30T15:03:45;67;51;33
68116;PMS7003;54909;54.464;18.498;2024-01-30T15:06:46;66;52;33
68116;PMS7003;54909;54.464;18.498;2024-01-30T15:09:56;67;50;33
68116;PMS7003;54909;54.464;18.498;2024-01-30T15:12:57;66;53;33
68116;PMS7003;54909;54.464;18.498;2024-01-30T15:15:59;65;52;33
68116;PMS7003;54909;54.464;18.498;2024-01-30T15:19:10;65;52;34
68116;PMS7003;54909;54.464;18.498;2024-01-30T15:22:12;66;52;34
68116;PMS7003;54909;54.464;18.498;2024-01-30T15:25:13;62;50;35
68116;PMS7003;54909;54.464;18.498;2024-01-30T15:28:33;67;52;34
68116;PMS7003;54909;54.464;18.498;2024-01-30T15:31:35;74;57;37
68116;PMS7003;54909;54.464;18.498;2024-01-30T15:34:36;75;58;37
68116;PMS7003;54909;54.464;18.498;2024-01-30T15:37:38;71;56;35
68116;PMS7003;54909;54.464;18.498;2024-01-30T15:40:39;71;56;36
68116;PMS7003;54909;54.464;18.498;2024-01-30T15:43:40;70;53;36
68116;PMS7003;54909;54.464;18.498;2024-01-30T15:46:47;73;56;35
68116;PMS7003;54909;54.464;18.498;2024-01-30T15:49:48;70;55;36
68116;PMS7003;54909;54.464;18.498;2024-01-30T15:52:50;74;56;35
68116;PMS7003;54909;54.464;18.498;2024-01-30T15:55:59;71;57;36
68116;PMS7003;54909;54.464;18.498;2024-01-30T15:59:00;73;56;36
68116;PMS7003;54909;54.464;18.498;2024-01-30T16:02:02;77;58;36
68116;PMS7003;54909;54.464;18.498;2024-01-30T16:05:11;76;59;38
68116;PMS7003;54909;54.464;18.498;2024-01-30T16:08:13;77;59;37
68116;PMS7003;54909;54.464;18.498;2024-01-30T16:11:16;75;58;38
68116;PMS7003;54909;54.464;18.498;2024-01-30T16:14:23;72;58;37
68116;PMS7003;54909;54.464;18.498;2024-01-30T16:17:25;77;60;38
68116;PMS7003;54909;54.464;18.498;2024-01-30T16:20:26;72;57;37
68116;PMS7003;54909;54.464;18.498;2024-01-30T16:23:36;77;59;37
68116;PMS7003;54909;54.464;18.498;2024-01-30T16:26:37;76;58;37
68116;PMS7003;54909;54.464;18.498;2024-01-30T16:29:39;75;57;37
68116;PMS7003;54909;54.464;18.498;2024-01-30T16:32:47;73;58;37
68116;PMS7003;54909;54.464;18.498;2024-01-30T16:35:48;77;60;36
68116;PMS7003;54909;54.464;18.498;2024-01-30T16:38:49;73;58;37
68116;PMS7003;54909;54.464;18.498;2024-01-30T16:41:59;75;58;37
68116;PMS7003;54909;54.464;18.498;2024-01-30T16:45:00;74;58;36
68116;PMS7003;54909;54.464;18.498;2024-01-30T16:48:01;73;57;37
68116;PMS7003;54909;54.464;18.498;2024-01-30T16:51:12;70;55;36
68116;PMS7003;54909;54.464;18.498;2024-01-30T16:54:13;78;59;37
68116;PMS7003;54909;54.464;18.498;2024-01-30T16:57:14;78;58;37
68116;PMS7003;54909;54.464;18.498;2024-01-30T17:00:22;74;58;37
68116;PMS7003;54909;54.464;18.498;2024-01-30T17:03:23;73;57;36
68116;PMS7003;54909;54.464;18.498;2024-01-30T17:06:25;72;55;35
68116;PMS7003;54909;54.464;18.498;2024-01-30T17:09:34;77;59;37
68116;PMS7003;54909;54.464;18.498;2024-01-30T17:12:35;71;56;37
68116;PMS7003;54909;54.464;18.498;2024-01-30T17:15:36;70;55;35
68116;PMS7003;54909;54.464;18.498;2024-01-30T17:18:37;75;59;37
68116;PMS7003;54909;54.464;18.498;2024-01-30T17:21:39;75;59;37
68116;PMS7003;54909;54.464;18.498;2024-01-30T17:24:40;79;59;37
68116;PMS7003;54909;54.464;18.498;2024-01-30T17:27:41;78;59;37
68116;PMS7003;54909;54.464;18.498;2024-01-30T17:30:42;76;60;38
68116;PMS7003;54909;54.464;18.498;2024-01-30T17:33:48;78;62;38
68116;PMS7003;54909;54.464;18.498;2024-01-30T17:36:50;76;60;37
68116;PMS7003;54909;54.464;18.498;2024-01-30T17:39:52;74;58;37
68116;PMS7003;54909;54.464;18.498;2024-01-30T17:43:00;70;55;35
68116;PMS7003;54909;54.464;18.498;2024-01-30T17:46:01;72;57;37
68116;PMS7003;54909;54.464;18.498;2024-01-30T17:49:04;71;56;35
68116;PMS7003;54909;54.464;18.498;2024-01-30T17:52:12;76;59;38
68116;PMS7003;54909;54.464;18.498;2024-01-30T17:55:13;77;59;37
68116;PMS7003;54909;54.464;18.498;2024-01-30T17:58:15;75;58;37
68116;PMS7003;54909;54.464;18.498;2024-01-30T18:01:24;72;57;36
68116;PMS7003;54909;54.464;18.498;2024-01-30T18:04:26;73;57;36
68116;PMS7003;54909;54.464;18.498;2024-01-30T18:07:27;79;59;37
68116;PMS7003;54909;54.464;18.498;2024-01-30T18:10:36;79;60;39
68116;PMS7003;54909;54.464;18.498;2024-01-30T18:13:37;76;59;37
68116;PMS7003;54909;54.464;18.498;2024-01-30T18:16:39;77;59;36
68116;PMS7003;54909;54.464;18.498;2024-01-30T18:19:48;74;58;36
68116;PMS7003;54909;54.464;18.498;2024-01-30T18:22:49;75;58;37
68116;PMS7003;54909;54.464;18.498;2024-01-30T18:25:50;73;55;34
68116;PMS7003;54909;54.464;18.498;2024-01-30T18:29:02;77;58;37
68116;PMS7003;54909;54.464;18.498;2024-01-30T18:34:39;71;56;37
68116;PMS7003;54909;54.464;18.498;2024-01-30T18:37:40;73;56;36
68116;PMS7003;54909;54.464;18.498;2024-01-30T18:40:42;73;56;36
68116;PMS7003;54909;54.464;18.498;2024-01-30T18:43:43;72;56;35
68116;PMS7003;54909;54.464;18.498;2024-01-30T18:46:44;69;53;35
68116;PMS7003;54909;54.464;18.498;2024-01-30T18:49:47;74;56;36
68116;PMS7003;54909;54.464;18.498;2024-01-30T18:52:52;74;57;36
68116;PMS7003;54909;54.464;18.498;2024-01-30T18:55:54;70;55;36
68116;PMS7003;54909;54.464;18.498;2024-01-30T18:58:55;71;56;37
68116;PMS7003;54909;54.464;18.498;2024-01-30T19:01:56;75;55;36
68116;PMS7003;54909;54.464;18.498;2024-01-30T19:05:03;64;51;36
68116;PMS7003;54909;54.464;18.498;2024-01-30T19:08:05;73;57;37
68116;PMS7003;54909;54.464;18.498;2024-01-30T19:11:06;71;56;35
68116;PMS7003;54909;54.464;18.498;2024-01-30T19:14:15;65;51;35
68116;PMS7003;54909;54.464;18.498;2024-01-30T19:17:16;73;56;35
68116;PMS7003;54909;54.464;18.498;2024-01-30T19:20:17;71;56;37
68116;PMS7003;54909;54.464;18.498;2024-01-30T19:23:18;70;54;34
68116;PMS7003;54909;54.464;18.498;2024-01-30T19:26:19;65;52;34
68116;PMS7003;54909;54.464;18.498;2024-01-30T19:29:20;70;54;35